sensor_id;sensor_type;location;lat;lon;timestamp;pressure;altitude;pressure_sealevel;temperature;humidity
60715;BME280;46564;53.096;8.246;2022-12-18T00:04:29;102750.09;;;-6.50;96.68
60715;BME280;46564;53.096;8.246;2022-12-18T00:09:31;102744.81;;;-6.59;96.79
60715;BME280;46564;53.096;8.246;2022-12-18T00:14:43;102743.03;;;-6.67;96.27
60715;BME280;46564;53.096;8.246;2022-12-18T00:19:45;102734.84;;;-6.72;96.45
60715;BME280;46564;53.096;8.246;2022-12-18T00:24:46;102733.03;;;-6.73;96.42
60715;BME280;46564;53.096;8.246;2022-12-18T00:29:48;102735.03;;;-6.92;96.86
60715;BME280;46564;53.096;8.246;2022-12-18T00:34:49;102739.97;;;-7.01;96.44
60715;BME280;46564;53.096;8.246;2022-12-18T00:39:51;102741.78;;;-7.14;96.02
60715;BME280;46564;53.096;8.246;2022-12-18T00:44:53;102739.56;;;-7.25;96.22
60715;BME280;46564;53.096;8.246;2022-12-18T00:49:55;102730.47;;;-7.38;96.37
60715;BME280;46564;53.096;8.246;2022-12-18T00:54:56;102736.09;;;-7.55;96.31
60715;BME280;46564;53.096;8.246;2022-12-18T01:00:06;102750.63;;;-7.61;95.79
60715;BME280;46564;53.096;8.246;2022-12-18T01:05:10;102756.06;;;-7.65;95.81
60715;BME280;46564;53.096;8.246;2022-12-18T01:10:13;102756.41;;;-7.69;96.08
60715;BME280;46564;53.096;8.246;2022-12-18T01:15:15;102764.91;;;-7.83;95.60
60715;BME280;46564;53.096;8.246;2022-12-18T01:20:17;102749.78;;;-7.89;95.40
60715;BME280;46564;53.096;8.246;2022-12-18T01:25:19;102760.84;;;-7.95;95.04
60715;BME280;46564;53.096;8.246;2022-12-18T01:30:21;102776.44;;;-8.00;95.33
60715;BME280;46564;53.096;8.246;2022-12-18T01:35:22;102768.06;;;-8.06;94.79
60715;BME280;46564;53.096;8.246;2022-12-18T01:40:24;102770.94;;;-8.10;95.34
60715;BME280;46564;53.096;8.246;2022-12-18T01:45:28;102776.91;;;-8.17;95.18
60715;BME280;46564;53.096;8.246;2022-12-18T01:50:40;102781.97;;;-8.24;94.54
60715;BME280;46564;53.096;8.246;2022-12-18T01:55:50;102797.34;;;-8.29;94.70
60715;BME280;46564;53.096;8.246;2022-12-18T02:00:54;102797.88;;;-8.32;94.24
60715;BME280;46564;53.096;8.246;2022-12-18T02:11:13;102787.28;;;-8.49;94.73
60715;BME280;46564;53.096;8.246;2022-12-18T02:16:34;102787.03;;;-8.58;94.33
60715;BME280;46564;53.096;8.246;2022-12-18T02:21:50;102787.34;;;-8.62;93.83
60715;BME280;46564;53.096;8.246;2022-12-18T02:27:05;102789.13;;;-8.68;94.49
60715;BME280;46564;53.096;8.246;2022-12-18T02:32:12;102774.59;;;-8.69;94.37
60715;BME280;46564;53.096;8.246;2022-12-18T02:37:17;102779.22;;;-8.80;94.07
60715;BME280;46564;53.096;8.246;2022-12-18T02:42:22;102777.38;;;-8.88;93.92
60715;BME280;46564;53.096;8.246;2022-12-18T02:47:29;102772.09;;;-8.90;93.89
60715;BME280;46564;53.096;8.246;2022-12-18T03:03:19;102770.69;;;-9.08;93.55
60715;BME280;46564;53.096;8.246;2022-12-18T03:08:31;102764.81;;;-9.14;93.36
60715;BME280;46564;53.096;8.246;2022-12-18T03:19:15;102754.41;;;-9.22;93.34
60715;BME280;46564;53.096;8.246;2022-12-18T03:24:18;102756.75;;;-9.24;93.66
60715;BME280;46564;53.096;8.246;2022-12-18T03:29:32;102751.66;;;-9.24;93.47
60715;BME280;46564;53.096;8.246;2022-12-18T03:34:37;102758.03;;;-9.20;93.46
60715;BME280;46564;53.096;8.246;2022-12-18T03:39:43;102773.06;;;-9.22;92.71
60715;BME280;46564;53.096;8.246;2022-12-18T03:44:59;102769.75;;;-9.28;93.33
60715;BME280;46564;53.096;8.246;2022-12-18T03:50:11;102774.44;;;-9.31;93.15
60715;BME280;46564;53.096;8.246;2022-12-18T03:55:19;102779.81;;;-9.35;92.97
60715;BME280;46564;53.096;8.246;2022-12-18T04:00:29;102765.66;;;-9.40;93.35
60715;BME280;46564;53.096;8.246;2022-12-18T04:05:41;102758.03;;;-9.40;92.98
60715;BME280;46564;53.096;8.246;2022-12-18T04:10:44;102759.53;;;-9.35;93.13
60715;BME280;46564;53.096;8.246;2022-12-18T04:15:46;102766.75;;;-9.38;92.84
60715;BME280;46564;53.096;8.246;2022-12-18T04:20:49;102771.31;;;-9.36;92.79
60715;BME280;46564;53.096;8.246;2022-12-18T04:25:52;102754.50;;;-9.48;93.04
60715;BME280;46564;53.096;8.246;2022-12-18T04:31:06;102770.94;;;-9.52;93.41
60715;BME280;46564;53.096;8.246;2022-12-18T04:36:09;102765.09;;;-9.58;92.80
60715;BME280;46564;53.096;8.246;2022-12-18T04:41:13;102774.72;;;-9.55;92.98
60715;BME280;46564;53.096;8.246;2022-12-18T04:46:15;102778.56;;;-9.52;92.93
60715;BME280;46564;53.096;8.246;2022-12-18T04:51:17;102777.84;;;-9.51;92.99
60715;BME280;46564;53.096;8.246;2022-12-18T04:56:26;102778.44;;;-9.46;92.67
60715;BME280;46564;53.096;8.246;2022-12-18T05:01:27;102771.09;;;-9.37;92.88
60715;BME280;46564;53.096;8.246;2022-12-18T05:06:35;102782.13;;;-9.24;92.83
60715;BME280;46564;53.096;8.246;2022-12-18T05:11:36;102786.28;;;-9.25;92.53
60715;BME280;46564;53.096;8.246;2022-12-18T05:16:38;102804.25;;;-9.23;93.41
60715;BME280;46564;53.096;8.246;2022-12-18T05:21:39;102789.41;;;-9.20;92.50
60715;BME280;46564;53.096;8.246;2022-12-18T05:26:41;102790.31;;;-9.19;93.27
60715;BME280;46564;53.096;8.246;2022-12-18T05:31:42;102790.81;;;-9.22;93.18
60715;BME280;46564;53.096;8.246;2022-12-18T05:36:45;102800.78;;;-9.24;93.21
60715;BME280;46564;53.096;8.246;2022-12-18T05:41:46;102798.25;;;-9.24;92.83
60715;BME280;46564;53.096;8.246;2022-12-18T05:46:47;102795.31;;;-9.27;93.16
60715;BME280;46564;53.096;8.246;2022-12-18T05:51:49;102790.44;;;-9.25;92.56
60715;BME280;46564;53.096;8.246;2022-12-18T05:56:51;102797.34;;;-9.24;93.01
60715;BME280;46564;53.096;8.246;2022-12-18T06:01:52;102797.03;;;-9.20;92.96
60715;BME280;46564;53.096;8.246;2022-12-18T06:06:54;102797.03;;;-9.20;92.99
60715;BME280;46564;53.096;8.246;2022-12-18T06:11:55;102800.88;;;-9.16;93.17
60715;BME280;46564;53.096;8.246;2022-12-18T06:16:57;102805.63;;;-9.12;92.70
60715;BME280;46564;53.096;8.246;2022-12-18T06:21:58;102805.09;;;-9.10;92.63
60715;BME280;46564;53.096;8.246;2022-12-18T06:27:00;102811.28;;;-9.08;92.70
60715;BME280;46564;53.096;8.246;2022-12-18T06:32:02;102814.91;;;-9.06;92.84
60715;BME280;46564;53.096;8.246;2022-12-18T06:37:03;102814.34;;;-9.10;93.29
60715;BME280;46564;53.096;8.246;2022-12-18T06:42:05;102815.97;;;-9.11;92.25
60715;BME280;46564;53.096;8.246;2022-12-18T06:47:06;102824.28;;;-9.12;92.45
60715;BME280;46564;53.096;8.246;2022-12-18T06:52:08;102824.69;;;-9.09;92.62
60715;BME280;46564;53.096;8.246;2022-12-18T06:57:09;102824.19;;;-9.06;92.32
60715;BME280;46564;53.096;8.246;2022-12-18T07:02:12;102826.78;;;-8.99;92.64
60715;BME280;46564;53.096;8.246;2022-12-18T07:07:14;102824.75;;;-9.01;93.00
60715;BME280;46564;53.096;8.246;2022-12-18T07:12:15;102833.44;;;-9.07;92.47
60715;BME280;46564;53.096;8.246;2022-12-18T07:17:17;102825.81;;;-9.07;92.45
60715;BME280;46564;53.096;8.246;2022-12-18T07:22:18;102813.63;;;-9.09;92.40
60715;BME280;46564;53.096;8.246;2022-12-18T07:27:20;102820.00;;;-9.06;92.65
60715;BME280;46564;53.096;8.246;2022-12-18T07:32:21;102823.50;;;-8.98;93.01
60715;BME280;46564;53.096;8.246;2022-12-18T07:37:23;102831.31;;;-8.96;92.11
60715;BME280;46564;53.096;8.246;2022-12-18T07:42:24;102816.91;;;-8.90;92.34
60715;BME280;46564;53.096;8.246;2022-12-18T07:47:34;102802.28;;;-8.78;92.37
60715;BME280;46564;53.096;8.246;2022-12-18T07:52:37;102800.38;;;-8.66;92.58
60715;BME280;46564;53.096;8.246;2022-12-18T07:57:38;102813.00;;;-8.54;92.32
60715;BME280;46564;53.096;8.246;2022-12-18T08:02:52;102800.19;;;-8.48;92.40
60715;BME280;46564;53.096;8.246;2022-12-18T08:07:54;102795.28;;;-8.39;92.08
60715;BME280;46564;53.096;8.246;2022-12-18T08:12:57;102800.97;;;-8.27;92.27
60715;BME280;46564;53.096;8.246;2022-12-18T08:18:05;102804.66;;;-8.18;92.11
60715;BME280;46564;53.096;8.246;2022-12-18T08:23:14;102794.22;;;-8.07;92.30
60715;BME280;46564;53.096;8.246;2022-12-18T08:28:15;102788.78;;;-8.03;92.10
60715;BME280;46564;53.096;8.246;2022-12-18T08:33:17;102793.03;;;-7.89;92.16
60715;BME280;46564;53.096;8.246;2022-12-18T08:38:18;102784.50;;;-7.82;92.30
60715;BME280;46564;53.096;8.246;2022-12-18T08:43:20;102787.28;;;-7.66;91.99
60715;BME280;46564;53.096;8.246;2022-12-18T08:48:41;102785.19;;;-7.41;92.12
60715;BME280;46564;53.096;8.246;2022-12-18T08:53:43;102785.41;;;-7.25;92.29
60715;BME280;46564;53.096;8.246;2022-12-18T08:58:45;102788.72;;;-7.05;92.29
60715;BME280;46564;53.096;8.246;2022-12-18T09:03:48;102817.66;;;-6.83;92.48
60715;BME280;46564;53.096;8.246;2022-12-18T09:08:50;102821.09;;;-6.61;92.24
60715;BME280;46564;53.096;8.246;2022-12-18T09:13:53;102839.13;;;-6.45;91.85
60715;BME280;46564;53.096;8.246;2022-12-18T09:18:55;102814.88;;;-6.27;92.27
60715;BME280;46564;53.096;8.246;2022-12-18T09:24:01;102816.66;;;-6.11;92.21
60715;BME280;46564;53.096;8.246;2022-12-18T09:29:03;102818.03;;;-5.92;92.24
60715;BME280;46564;53.096;8.246;2022-12-18T09:34:06;102822.41;;;-5.83;91.70
60715;BME280;46564;53.096;8.246;2022-12-18T09:39:07;102819.78;;;-5.69;91.71
60715;BME280;46564;53.096;8.246;2022-12-18T09:44:17;102819.19;;;-5.59;91.76
60715;BME280;46564;53.096;8.246;2022-12-18T09:49:23;102833.53;;;-5.45;91.58
60715;BME280;46564;53.096;8.246;2022-12-18T09:55:20;102823.44;;;-5.29;91.25
60715;BME280;46564;53.096;8.246;2022-12-18T10:00:01;102812.91;;;-5.09;91.31
60715;BME280;46564;53.096;8.246;2022-12-18T10:05:14;102830.06;;;-4.85;91.13
60715;BME280;46564;53.096;8.246;2022-12-18T10:10:30;102827.03;;;-4.67;90.93
60715;BME280;46564;53.096;8.246;2022-12-18T10:15:54;102806.25;;;-4.54;90.78
60715;BME280;46564;53.096;8.246;2022-12-18T10:21:16;102787.25;;;-4.49;90.52
60715;BME280;46564;53.096;8.246;2022-12-18T10:26:20;102799.88;;;-4.34;90.31
60715;BME280;46564;53.096;8.246;2022-12-18T10:31:24;102773.88;;;-4.30;90.13
60715;BME280;46564;53.096;8.246;2022-12-18T10:36:25;102779.91;;;-4.30;89.93
60715;BME280;46564;53.096;8.246;2022-12-18T10:41:27;102769.75;;;-4.21;89.82
60715;BME280;46564;53.096;8.246;2022-12-18T10:46:29;102772.19;;;-4.06;89.76
60715;BME280;46564;53.096;8.246;2022-12-18T10:51:36;102757.59;;;-3.83;89.29
60715;BME280;46564;53.096;8.246;2022-12-18T10:56:39;102761.59;;;-3.78;89.32
60715;BME280;46564;53.096;8.246;2022-12-18T11:12:14;102736.44;;;-2.99;89.07
60715;BME280;46564;53.096;8.246;2022-12-18T11:22:29;102722.53;;;-2.68;88.13
60715;BME280;46564;53.096;8.246;2022-12-18T11:27:32;102714.91;;;-2.50;88.15
60715;BME280;46564;53.096;8.246;2022-12-18T11:32:39;102711.41;;;-2.59;87.73
60715;BME280;46564;53.096;8.246;2022-12-18T11:37:52;102696.28;;;-2.74;87.44
60715;BME280;46564;53.096;8.246;2022-12-18T11:43:20;102695.97;;;-2.77;87.00
60715;BME280;46564;53.096;8.246;2022-12-18T11:48:34;102681.50;;;-2.68;87.08
60715;BME280;46564;53.096;8.246;2022-12-18T11:53:40;102672.78;;;-2.61;86.88
60715;BME280;46564;53.096;8.246;2022-12-18T12:25:52;102637.94;;;-2.50;86.35
60715;BME280;46564;53.096;8.246;2022-12-18T12:41:42;102616.97;;;-2.28;86.05
60715;BME280;46564;53.096;8.246;2022-12-18T12:47:16;102609.75;;;-2.33;85.91
60715;BME280;46564;53.096;8.246;2022-12-18T12:52:37;102591.91;;;-2.40;86.06
60715;BME280;46564;53.096;8.246;2022-12-18T12:57:46;102596.28;;;-2.39;85.93
60715;BME280;46564;53.096;8.246;2022-12-18T13:08:24;102584.66;;;-2.44;86.09
60715;BME280;46564;53.096;8.246;2022-12-18T13:13:48;102564.44;;;-2.41;85.94
60715;BME280;46564;53.096;8.246;2022-12-18T13:18:53;102548.75;;;-2.44;85.69
60715;BME280;46564;53.096;8.246;2022-12-18T13:23:56;102542.72;;;-2.44;85.67
60715;BME280;46564;53.096;8.246;2022-12-18T13:28:59;102546.94;;;-2.45;85.50
60715;BME280;46564;53.096;8.246;2022-12-18T13:34:19;102548.91;;;-2.42;85.75
60715;BME280;46564;53.096;8.246;2022-12-18T13:39:33;102535.63;;;-2.47;85.32
60715;BME280;46564;53.096;8.246;2022-12-18T13:44:41;102533.66;;;-2.50;85.32
60715;BME280;46564;53.096;8.246;2022-12-18T13:49:43;102530.06;;;-2.52;85.29
60715;BME280;46564;53.096;8.246;2022-12-18T13:54:50;102525.97;;;-2.58;85.58
60715;BME280;46564;53.096;8.246;2022-12-18T13:59:52;102531.88;;;-2.59;85.50
60715;BME280;46564;53.096;8.246;2022-12-18T14:04:54;102515.56;;;-2.60;85.38
60715;BME280;46564;53.096;8.246;2022-12-18T14:10:00;102498.69;;;-2.67;85.46
60715;BME280;46564;53.096;8.246;2022-12-18T14:15:46;102501.69;;;-2.62;85.43
60715;BME280;46564;53.096;8.246;2022-12-18T14:20:50;102492.66;;;-2.67;85.41
60715;BME280;46564;53.096;8.246;2022-12-18T14:25:53;102483.00;;;-2.61;85.70
60715;BME280;46564;53.096;8.246;2022-12-18T14:30:55;102487.97;;;-2.62;85.29
60715;BME280;46564;53.096;8.246;2022-12-18T14:36:00;102477.88;;;-2.70;85.48
60715;BME280;46564;53.096;8.246;2022-12-18T14:41:10;102482.84;;;-2.71;85.41
60715;BME280;46564;53.096;8.246;2022-12-18T14:51:34;102466.13;;;-2.85;84.91
60715;BME280;46564;53.096;8.246;2022-12-18T14:56:44;102459.47;;;-2.92;85.04
60715;BME280;46564;53.096;8.246;2022-12-18T15:07:03;102444.38;;;-2.97;84.56
60715;BME280;46564;53.096;8.246;2022-12-18T15:12:15;102438.66;;;-3.04;84.46
60715;BME280;46564;53.096;8.246;2022-12-18T15:17:22;102412.72;;;-3.07;84.06
60715;BME280;46564;53.096;8.246;2022-12-18T15:22:32;102402.78;;;-3.04;83.96
60715;BME280;46564;53.096;8.246;2022-12-18T15:27:36;102385.13;;;-3.00;83.63
60715;BME280;46564;53.096;8.246;2022-12-18T15:32:42;102378.50;;;-2.98;83.58
60715;BME280;46564;53.096;8.246;2022-12-18T15:37:44;102371.41;;;-2.92;83.26
60715;BME280;46564;53.096;8.246;2022-12-18T15:42:46;102373.69;;;-2.87;83.24
60715;BME280;46564;53.096;8.246;2022-12-18T15:48:23;102377.44;;;-2.83;82.61
60715;BME280;46564;53.096;8.246;2022-12-18T15:53:29;102379.38;;;-2.72;82.50
60715;BME280;46564;53.096;8.246;2022-12-18T15:58:31;102388.53;;;-2.65;82.12
60715;BME280;46564;53.096;8.246;2022-12-18T16:03:34;102368.03;;;-2.65;81.77
60715;BME280;46564;53.096;8.246;2022-12-18T16:08:35;102363.50;;;-2.68;81.80
60715;BME280;46564;53.096;8.246;2022-12-18T16:13:37;102345.25;;;-2.71;81.36
60715;BME280;46564;53.096;8.246;2022-12-18T16:18:39;102323.72;;;-2.73;80.95
60715;BME280;46564;53.096;8.246;2022-12-18T16:23:41;102307.88;;;-2.69;81.31
60715;BME280;46564;53.096;8.246;2022-12-18T16:28:43;102314.19;;;-2.74;80.77
60715;BME280;46564;53.096;8.246;2022-12-18T16:33:49;102296.53;;;-2.71;81.07
60715;BME280;46564;53.096;8.246;2022-12-18T16:38:50;102297.00;;;-2.75;80.97
60715;BME280;46564;53.096;8.246;2022-12-18T16:43:52;102290.53;;;-2.80;81.01
60715;BME280;46564;53.096;8.246;2022-12-18T16:48:57;102286.59;;;-2.76;81.21
60715;BME280;46564;53.096;8.246;2022-12-18T16:54:00;102282.66;;;-2.64;80.92
60715;BME280;46564;53.096;8.246;2022-12-18T16:59:10;102272.69;;;-2.61;80.89
60715;BME280;46564;53.096;8.246;2022-12-18T17:04:12;102249.75;;;-2.59;80.56
60715;BME280;46564;53.096;8.246;2022-12-18T17:09:14;102246.41;;;-2.58;80.23
60715;BME280;46564;53.096;8.246;2022-12-18T17:14:18;102242.47;;;-2.55;80.05
60715;BME280;46564;53.096;8.246;2022-12-18T17:19:20;102242.63;;;-2.53;80.13
60715;BME280;46564;53.096;8.246;2022-12-18T17:24:23;102250.88;;;-2.47;79.79
60715;BME280;46564;53.096;8.246;2022-12-18T17:29:24;102233.94;;;-2.45;79.58
60715;BME280;46564;53.096;8.246;2022-12-18T17:34:27;102227.59;;;-2.40;79.45
60715;BME280;46564;53.096;8.246;2022-12-18T17:39:30;102214.59;;;-2.33;79.33
60715;BME280;46564;53.096;8.246;2022-12-18T17:44:32;102216.50;;;-2.30;78.94
60715;BME280;46564;53.096;8.246;2022-12-18T17:49:34;102197.19;;;-2.26;78.87
60715;BME280;46564;53.096;8.246;2022-12-18T17:54:36;102180.66;;;-2.20;78.34
60715;BME280;46564;53.096;8.246;2022-12-18T17:59:40;102198.91;;;-2.17;78.25
60715;BME280;46564;53.096;8.246;2022-12-18T18:04:41;102188.44;;;-2.09;78.24
60715;BME280;46564;53.096;8.246;2022-12-18T18:09:43;102175.13;;;-2.05;77.73
60715;BME280;46564;53.096;8.246;2022-12-18T18:14:44;102152.44;;;-2.01;77.63
60715;BME280;46564;53.096;8.246;2022-12-18T18:19:46;102149.38;;;-1.97;77.02
60715;BME280;46564;53.096;8.246;2022-12-18T18:24:50;102145.41;;;-1.93;76.91
60715;BME280;46564;53.096;8.246;2022-12-18T18:29:52;102170.47;;;-1.90;76.74
60715;BME280;46564;53.096;8.246;2022-12-18T18:34:53;102154.41;;;-1.88;76.39
60715;BME280;46564;53.096;8.246;2022-12-18T18:39:55;102150.81;;;-1.90;76.31
60715;BME280;46564;53.096;8.246;2022-12-18T18:44:57;102153.38;;;-1.90;76.21
60715;BME280;46564;53.096;8.246;2022-12-18T18:49:58;102142.50;;;-1.87;76.08
60715;BME280;46564;53.096;8.246;2022-12-18T18:55:00;102129.66;;;-1.87;75.88
60715;BME280;46564;53.096;8.246;2022-12-18T19:00:22;102142.50;;;-1.87;75.98
60715;BME280;46564;53.096;8.246;2022-12-18T19:05:26;102146.84;;;-1.86;75.78
60715;BME280;46564;53.096;8.246;2022-12-18T19:10:29;102141.97;;;-1.83;75.94
60715;BME280;46564;53.096;8.246;2022-12-18T19:15:32;102150.13;;;-1.79;75.82
60715;BME280;46564;53.096;8.246;2022-12-18T19:20:34;102144.06;;;-1.79;75.54
60715;BME280;46564;53.096;8.246;2022-12-18T19:25:37;102135.13;;;-1.74;75.44
60715;BME280;46564;53.096;8.246;2022-12-18T19:30:43;102118.16;;;-1.72;75.32
60715;BME280;46564;53.096;8.246;2022-12-18T19:35:45;102117.88;;;-1.75;75.09
60715;BME280;46564;53.096;8.246;2022-12-18T19:40:47;102124.06;;;-1.73;74.98
60715;BME280;46564;53.096;8.246;2022-12-18T19:45:53;102130.25;;;-1.71;74.78
60715;BME280;46564;53.096;8.246;2022-12-18T19:50:55;102123.16;;;-1.73;74.74
60715;BME280;46564;53.096;8.246;2022-12-18T19:55:57;102113.16;;;-1.70;74.82
60715;BME280;46564;53.096;8.246;2022-12-18T20:00:58;102127.81;;;-1.69;74.76
60715;BME280;46564;53.096;8.246;2022-12-18T20:06:16;102119.44;;;-1.67;74.66
60715;BME280;46564;53.096;8.246;2022-12-18T20:11:19;102108.56;;;-1.64;74.37
60715;BME280;46564;53.096;8.246;2022-12-18T20:16:22;102116.75;;;-1.68;74.41
60715;BME280;46564;53.096;8.246;2022-12-18T20:21:23;102127.16;;;-1.67;74.01
60715;BME280;46564;53.096;8.246;2022-12-18T20:26:25;102135.50;;;-1.69;74.14
60715;BME280;46564;53.096;8.246;2022-12-18T20:31:27;102122.81;;;-1.68;74.40
60715;BME280;46564;53.096;8.246;2022-12-18T20:36:28;102116.13;;;-1.66;74.57
60715;BME280;46564;53.096;8.246;2022-12-18T20:41:32;102104.56;;;-1.71;74.40
60715;BME280;46564;53.096;8.246;2022-12-18T20:46:39;102112.13;;;-1.72;74.58
60715;BME280;46564;53.096;8.246;2022-12-18T20:51:40;102107.66;;;-1.65;74.50
60715;BME280;46564;53.096;8.246;2022-12-18T20:56:42;102098.91;;;-1.67;74.49
60715;BME280;46564;53.096;8.246;2022-12-18T21:01:43;102095.72;;;-1.64;74.71
60715;BME280;46564;53.096;8.246;2022-12-18T21:06:49;102091.19;;;-1.67;74.40
60715;BME280;46564;53.096;8.246;2022-12-18T21:12:02;102081.59;;;-1.69;74.82
60715;BME280;46564;53.096;8.246;2022-12-18T21:17:22;102062.19;;;-1.66;74.82
60715;BME280;46564;53.096;8.246;2022-12-18T21:22:27;102060.38;;;-1.67;74.84
60715;BME280;46564;53.096;8.246;2022-12-18T21:27:28;102059.34;;;-1.69;74.86
60715;BME280;46564;53.096;8.246;2022-12-18T21:32:30;102058.06;;;-1.64;74.81
60715;BME280;46564;53.096;8.246;2022-12-18T21:37:34;102060.41;;;-1.56;74.49
60715;BME280;46564;53.096;8.246;2022-12-18T21:42:35;102056.31;;;-1.54;74.39
60715;BME280;46564;53.096;8.246;2022-12-18T21:47:55;102062.34;;;-1.54;74.74
60715;BME280;46564;53.096;8.246;2022-12-18T21:52:57;102067.22;;;-1.57;74.84
60715;BME280;46564;53.096;8.246;2022-12-18T21:57:59;102065.81;;;-1.53;74.88
60715;BME280;46564;53.096;8.246;2022-12-18T22:03:00;102055.78;;;-1.50;74.46
60715;BME280;46564;53.096;8.246;2022-12-18T22:08:18;102046.69;;;-1.47;74.65
60715;BME280;46564;53.096;8.246;2022-12-18T22:13:19;102048.78;;;-1.43;74.76
60715;BME280;46564;53.096;8.246;2022-12-18T22:18:21;102034.50;;;-1.39;74.94
60715;BME280;46564;53.096;8.246;2022-12-18T22:23:23;102015.75;;;-1.38;74.79
60715;BME280;46564;53.096;8.246;2022-12-18T22:28:24;102014.47;;;-1.33;74.83
60715;BME280;46564;53.096;8.246;2022-12-18T22:33:45;102012.41;;;-1.37;75.23
60715;BME280;46564;53.096;8.246;2022-12-18T22:38:47;102004.56;;;-1.28;75.48
60715;BME280;46564;53.096;8.246;2022-12-18T22:43:48;102000.47;;;-1.26;75.47
60715;BME280;46564;53.096;8.246;2022-12-18T22:48:50;102000.47;;;-1.26;75.41
60715;BME280;46564;53.096;8.246;2022-12-18T22:53:51;101997.63;;;-1.29;75.93
60715;BME280;46564;53.096;8.246;2022-12-18T22:58:55;101980.31;;;-1.21;76.03
60715;BME280;46564;53.096;8.246;2022-12-18T23:03:58;101974.63;;;-1.17;76.22
60715;BME280;46564;53.096;8.246;2022-12-18T23:09:00;101966.41;;;-1.23;76.31
60715;BME280;46564;53.096;8.246;2022-12-18T23:14:02;101962.19;;;-1.23;76.46
60715;BME280;46564;53.096;8.246;2022-12-18T23:19:03;101958.31;;;-1.18;76.92
60715;BME280;46564;53.096;8.246;2022-12-18T23:24:06;101954.97;;;-1.17;77.16
60715;BME280;46564;53.096;8.246;2022-12-18T23:29:07;101937.88;;;-1.16;77.15
60715;BME280;46564;53.096;8.246;2022-12-18T23:34:11;101928.34;;;-1.17;77.35
60715;BME280;46564;53.096;8.246;2022-12-18T23:39:13;101924.38;;;-1.14;77.68
60715;BME280;46564;53.096;8.246;2022-12-18T23:44:30;101924.25;;;-1.15;77.93
60715;BME280;46564;53.096;8.246;2022-12-18T23:49:32;101924.75;;;-1.09;77.86
60715;BME280;46564;53.096;8.246;2022-12-18T23:54:33;101908.16;;;-1.13;78.12
60715;BME280;46564;53.096;8.246;2022-12-18T23:59:35;101908.28;;;-1.11;78.36
